Time;durP1;ratioP1;P1;durP2;ratioP2;P2;SDS_P1;SDS_P2;PMS_P1;PMS_P2;Temp;Humidity;BMP_temperature;BMP_pressure;BME280_temperature;BME280_humidity;BME280_pressure;Samples;Min_cycle;Max_cycle;Signal;HPM_P1;HPM_P2
2022/06/12 00:01:19;;;;;;;2.72;2.30;;;;;;;18.28;55.46;101494.19;7395914;19;20384;-65
2022/06/12 00:03:49;;;;;;;4.75;2.60;;;;;;;18.23;55.92;101504.97;7397573;19;20537;-65
2022/06/12 00:06:18;;;;;;;2.92;2.28;;;;;;;18.19;56.33;101495.44;7397831;19;20037;-65
2022/06/12 00:08:50;;;;;;;2.47;2.28;;;;;;;18.14;56.47;101500.06;7395570;19;20032;-66
2022/06/12 00:11:22;;;;;;;4.47;2.30;;;;;;;18.09;56.23;101499.41;7396563;19;20022;-65
2022/06/12 00:13:53;;;;;;;2.40;2.15;;;;;;;18.03;56.81;101504.03;7398067;19;20019;-67
2022/06/12 00:16:24;;;;;;;2.20;2.00;;;;;;;17.98;56.48;101502.47;7398429;19;20015;-65
2022/06/12 00:18:54;;;;;;;1.75;1.63;;;;;;;17.91;56.76;101499.19;7398294;19;20018;-66
2022/06/12 00:21:23;;;;;;;3.20;2.38;;;;;;;17.85;56.42;101499.44;7398252;19;20015;-65
2022/06/12 00:23:56;;;;;;;2.53;2.05;;;;;;;17.79;56.61;101502.31;7396273;19;20018;-66
2022/06/12 00:26:29;;;;;;;2.90;2.35;;;;;;;17.71;56.54;101495.53;7397650;19;20464;-66
2022/06/12 00:28:59;;;;;;;2.30;2.10;;;;;;;17.64;56.77;101493.19;7397522;19;20549;-66
2022/06/12 00:31:28;;;;;;;3.10;2.40;;;;;;;17.58;56.82;101492.50;7396085;19;20022;-66
2022/06/12 00:33:57;;;;;;;2.50;2.10;;;;;;;17.53;57.32;101490.97;7396125;19;20027;-67
2022/06/12 00:36:26;;;;;;;3.47;2.20;;;;;;;17.49;57.40;101492.88;7396122;19;20541;-64
2022/06/12 00:38:57;;;;;;;2.58;2.38;;;;;;;17.45;57.40;101493.91;7396387;19;20380;-66
2022/06/12 00:41:26;;;;;;;3.20;2.28;;;;;;;17.41;57.82;101487.88;7396259;19;20018;-67
2022/06/12 00:43:54;;;;;;;2.42;1.92;;;;;;;17.36;57.50;101484.53;7397002;19;20015;-66
2022/06/12 00:46:45;;;;;;;2.83;2.25;;;;;;;17.32;57.78;101487.34;7396723;19;20485;-66
2022/06/12 00:49:18;;;;;;;2.72;2.53;;;;;;;17.26;57.89;101488.44;7395304;19;20033;-66
2022/06/12 00:51:50;;;;;;;2.75;2.55;;;;;;;17.22;58.11;101482.38;7395299;19;20379;-66
2022/06/12 00:54:24;;;;;;;8.27;2.72;;;;;;;17.18;58.26;101478.13;7395421;19;20039;-66
2022/06/12 00:56:57;;;;;;;2.60;2.30;;;;;;;17.15;58.13;101480.03;7396845;19;20039;-66
2022/06/12 00:59:37;;;;;;;3.28;2.42;;;;;;;17.10;58.25;101474.91;7396048;19;20081;-66
2022/06/12 01:02:08;;;;;;;3.05;2.50;;;;;;;17.06;58.47;101476.81;7395793;19;20034;-66
2022/06/12 01:07:22;;;;;;;2.35;2.15;;;;;;;16.98;58.78;101489.47;7396574;19;20003;-66
2022/06/12 01:09:55;;;;;;;2.97;2.70;;;;;;;16.90;59.04;101481.75;7396285;19;20019;-66
2022/06/12 01:12:26;;;;;;;;;;;;;;;16.88;58.92;101488.03;7394994;19;20022;-66
2022/06/12 01:14:59;;;;;;;2.72;2.53;;;;;;;16.82;59.03;101488.25;7395246;19;19914;-67
2022/06/12 01:17:30;;;;;;;3.05;2.75;;;;;;;16.77;59.30;101488.44;7395952;19;20423;-66
2022/06/12 01:20:03;;;;;;;3.15;2.85;;;;;;;16.72;59.60;101482.41;7393894;19;20358;-65
2022/06/12 01:23:15;;;;;;;3.45;2.75;;;;;;;16.70;60.65;101489.59;7394894;19;20039;-66
2022/06/12 01:26:10;;;;;;;4.90;3.88;;;;;;;16.61;60.17;101486.31;7393240;19;20086;-66
2022/06/12 01:28:46;;;;;;;4.57;4.00;;;;;;;16.56;60.42;101487.41;7396240;19;20388;-66
2022/06/12 01:31:41;;;;;;;5.90;4.72;;;;;;;16.49;61.04;101489.44;7395334;19;20034;-65
2022/06/12 01:34:22;;;;;;;6.35;4.85;;;;;;;16.42;61.26;101482.59;7394230;19;20022;-65
2022/06/12 01:37:00;;;;;;;4.82;4.20;;;;;;;16.36;61.23;101482.81;7395621;19;20074;-66
2022/06/12 01:39:39;;;;;;;5.10;3.90;;;;;;;16.31;61.25;101492.69;7393160;19;20019;-65
2022/06/12 01:42:21;;;;;;;4.93;4.38;;;;;;;16.25;61.52;101489.34;7394768;19;20035;-65
2022/06/12 01:45:04;;;;;;;4.13;3.78;;;;;;;16.22;61.55;101488.56;7393284;19;20358;-66
2022/06/12 01:47:38;;;;;;;4.85;3.88;;;;;;;16.17;61.83;101480.78;7402298;19;20019;-65
2022/06/12 01:50:15;;;;;;;4.20;3.80;;;;;;;16.12;62.03;101496.84;7399201;19;20485;-65
2022/06/12 01:52:53;;;;;;;9.13;4.05;;;;;;;16.08;62.34;101491.69;7399746;19;20018;-66
2022/06/12 01:55:29;;;;;;;4.53;4.13;;;;;;;16.06;62.52;101491.75;7400265;19;20018;-66
2022/06/12 01:58:06;;;;;;;4.03;3.70;;;;;;;16.05;62.55;101484.72;7399149;19;20422;-66
2022/06/12 02:00:39;;;;;;;4.55;3.83;;;;;;;16.04;62.71;101482.13;7402512;19;20014;-66
2022/06/12 02:03:14;;;;;;;4.57;3.83;;;;;;;16.04;62.93;101482.97;7399260;19;20027;-66
2022/06/12 02:05:49;;;;;;;4.50;3.92;;;;;;;16.03;62.66;101483.88;7399216;19;20022;-66
2022/06/12 02:08:22;;;;;;;6.20;3.70;;;;;;;16.03;62.95;101483.03;7399533;19;20022;-65
2022/06/12 02:10:53;;;;;;;5.78;3.67;;;;;;;16.04;63.01;101468.88;7399342;19;20026;-65
2022/06/12 02:13:24;;;;;;;4.28;3.83;;;;;;;16.04;63.21;101479.47;7398924;19;20018;-65
2022/06/12 02:16:01;;;;;;;5.85;3.78;;;;;;;16.02;62.90;101471.56;7398233;19;20014;-66
2022/06/12 02:18:35;;;;;;;4.80;4.03;;;;;;;16.01;63.41;101472.50;7398296;19;20485;-66
2022/06/12 02:21:10;;;;;;;5.00;4.57;;;;;;;15.98;63.14;101477.88;7401591;19;20032;-65
2022/06/12 02:23:44;;;;;;;5.40;4.05;;;;;;;15.95;63.23;101470.03;7398158;19;20018;-65
2022/06/12 02:26:16;;;;;;;5.13;4.57;;;;;;;15.92;63.56;101471.00;7398904;19;20090;-66
2022/06/12 02:28:49;;;;;;;7.88;4.30;;;;;;;15.89;63.68;101465.81;7397833;19;20019;-65
2022/06/12 02:31:25;;;;;;;5.25;4.45;;;;;;;15.88;63.96;101468.50;7399594;19;20029;-64
2022/06/12 02:33:59;;;;;;;5.03;4.30;;;;;;;15.86;63.77;101471.22;7401196;19;20093;-65
2022/06/12 02:36:35;;;;;;;5.10;4.30;;;;;;;15.85;63.98;101471.28;7400218;19;20014;-65
2022/06/12 02:39:12;;;;;;;4.93;3.90;;;;;;;15.82;64.12;101461.63;7397290;19;20426;-66
2022/06/12 02:41:46;;;;;;;6.85;4.15;;;;;;;15.80;64.12;101455.50;7400124;19;20023;-65
2022/06/12 02:44:17;;;;;;;;;;;;;;;15.78;63.88;101452.91;7401942;19;20021;-66
2022/06/12 02:46:52;;;;;;;3.60;3.30;;;;;;;15.77;63.83;101448.53;7400206;19;19923;-66
2022/06/12 02:49:22;;;;;;;5.55;3.50;;;;;;;15.76;63.95;101448.59;7397450;19;20035;-65
2022/06/12 02:51:56;;;;;;;4.95;3.92;;;;;;;15.77;64.07;101450.28;7397186;19;20019;-65
2022/06/12 02:54:34;;;;;;;3.65;3.35;;;;;;;15.76;64.14;101446.78;7398619;19;20036;-66
2022/06/12 02:57:13;;;;;;;3.88;3.58;;;;;;;15.77;63.83;101442.34;7396720;19;20011;-66
2022/06/12 02:59:59;;;;;;;4.00;3.60;;;;;;;15.76;63.87;101438.84;7400038;19;20363;-66
2022/06/12 03:02:36;;;;;;;4.07;3.78;;;;;;;15.76;63.81;101438.84;7397425;19;20498;-66
2022/06/12 03:05:14;;;;;;;3.88;3.58;;;;;;;15.75;64.03;101437.13;7399845;19;20070;-65
2022/06/12 03:07:43;;;;;;;3.38;2.97;;;;;;;15.75;63.51;101434.47;7398141;19;20036;-66
2022/06/12 03:10:18;;;;;;;3.45;3.17;;;;;;;15.73;63.73;101435.44;7400025;19;20039;-66
2022/06/12 03:12:50;;;;;;;5.75;3.60;;;;;;;15.69;63.17;101432.03;7397462;19;20010;-65
2022/06/12 03:15:34;;;;;;;3.80;3.45;;;;;;;15.68;63.70;101427.63;7397554;19;20039;-66
2022/06/12 03:18:07;;;;;;;5.47;3.28;;;;;;;15.68;63.56;101429.44;7399299;19;20027;-66
2022/06/12 03:20:43;;;;;;;4.18;3.33;;;;;;;15.66;63.66;101434.78;7399891;19;20014;-66
2022/06/12 03:23:23;;;;;;;5.55;3.88;;;;;;;15.64;63.78;101433.94;7396882;19;20018;-66
2022/06/12 03:25:56;;;;;;;3.65;3.35;;;;;;;15.63;63.66;101429.56;7396599;19;20503;-66
2022/06/12 03:28:34;;;;;;;4.75;4.32;;;;;;;15.62;63.70;101433.16;7397521;19;20015;-66
2022/06/12 03:31:13;;;;;;;4.20;3.80;;;;;;;15.60;63.72;101437.63;7399217;19;20220;-65
2022/06/12 03:33:55;;;;;;;4.28;3.28;;;;;;;15.58;63.73;101435.03;7399425;19;20018;-66
2022/06/12 03:36:29;;;;;;;5.25;3.80;;;;;;;15.59;63.88;101449.97;7399421;19;20040;-66
2022/06/12 03:39:03;;;;;;;;;;;;;;;15.59;63.91;101446.47;7399331;19;20423;-66
2022/06/12 03:41:46;;;;;;;3.58;3.17;;;;;;;15.59;63.72;101449.09;7396704;19;20290;-65
2022/06/12 03:44:39;;;;;;;4.00;3.60;;;;;;;15.58;63.51;101450.91;7398259;19;20027;-66
2022/06/12 03:47:14;;;;;;;3.80;3.50;;;;;;;15.57;63.66;101454.44;7398077;19;20481;-65
2022/06/12 03:49:50;;;;;;;3.17;2.97;;;;;;;15.56;63.85;101452.72;7398871;19;20031;-65
2022/06/12 03:52:26;;;;;;;3.78;3.47;;;;;;;15.57;63.79;101454.44;7395780;19;20022;-66
2022/06/12 03:55:02;;;;;;;4.95;3.95;;;;;;;15.59;63.68;101454.41;7398662;19;20022;-66
2022/06/12 04:00:21;;;;;;;4.15;3.70;;;;;;;15.67;63.93;101448.84;7397677;19;20013;-66
2022/06/12 04:02:52;;;;;;;;;;;;;;;15.73;63.54;101448.66;7397044;19;20018;-65
2022/06/12 04:05:26;;;;;;;4.45;3.30;;;;;;;15.78;63.40;101452.03;7398004;19;19926;-66
2022/06/12 04:07:58;;;;;;;4.38;3.65;;;;;;;15.86;63.64;101457.09;7398095;19;20027;-65
2022/06/12 04:10:30;;;;;;;4.03;3.58;;;;;;;15.91;63.39;101457.81;7395436;19;20010;-66
2022/06/12 04:13:00;;;;;;;3.90;3.50;;;;;;;15.96;63.67;101456.75;7396308;19;20039;-66
2022/06/12 04:15:34;;;;;;;4.93;3.80;;;;;;;16.02;63.51;101450.38;7395752;19;20015;-66
2022/06/12 04:18:03;;;;;;;4.18;3.78;;;;;;;16.08;63.33;101450.19;7397921;19;20350;-66
2022/06/12 04:20:48;;;;;;;4.22;3.60;;;;;;;16.17;63.43;101456.09;7395709;19;20022;-65
2022/06/12 04:23:26;;;;;;;4.60;3.80;;;;;;;16.23;63.00;101464.69;7395087;19;20019;-66
2022/06/12 04:25:58;;;;;;;4.00;3.60;;;;;;;16.30;63.08;101465.34;7395820;19;20014;-65
2022/06/12 04:28:32;;;;;;;4.43;3.58;;;;;;;16.37;63.32;101472.16;7394951;19;20023;-65
2022/06/12 04:31:01;;;;;;;3.78;3.47;;;;;;;16.40;63.04;101472.06;7397305;19;20014;-65
2022/06/12 04:33:42;;;;;;;6.20;3.80;;;;;;;16.44;63.00;101470.16;7394622;19;20018;-65
2022/06/12 04:36:15;;;;;;;4.25;3.85;;;;;;;16.45;62.78;101475.41;7396521;19;20011;-66
2022/06/12 04:38:44;;;;;;;4.32;3.92;;;;;;;16.51;62.75;101476.13;7397179;19;20029;-66
2022/06/12 04:41:18;;;;;;;4.45;3.88;;;;;;;16.54;62.73;101478.66;7395174;19;20018;-66
2022/06/12 04:43:46;;;;;;;3.72;3.40;;;;;;;16.61;62.64;101482.81;7397163;19;20022;-66
2022/06/12 04:46:15;;;;;;;5.57;3.80;;;;;;;16.65;62.71;101476.50;7394753;19;20014;-66
2022/06/12 04:48:46;;;;;;;4.65;4.25;;;;;;;16.67;62.70;101473.78;7395068;19;20015;-66
2022/06/12 04:51:18;;;;;;;4.03;3.63;;;;;;;16.71;62.72;101478.06;7396935;19;20010;-65
2022/06/12 04:53:48;;;;;;;3.63;3.33;;;;;;;16.75;62.55;101477.88;7395126;19;20035;-66
2022/06/12 04:56:18;;;;;;;4.55;3.30;;;;;;;16.81;62.11;101479.47;7396320;19;20505;-66
2022/06/12 04:58:47;;;;;;;3.55;3.22;;;;;;;16.86;62.09;101474.00;7394604;19;20011;-65
2022/06/12 05:01:16;;;;;;;4.10;2.97;;;;;;;16.91;62.12;101474.72;7394227;19;20020;-64
2022/06/12 05:03:45;;;;;;;3.47;3.17;;;;;;;16.98;62.09;101475.38;7394138;19;20410;-65
2022/06/12 05:06:18;;;;;;;3.00;2.80;;;;;;;17.02;61.65;101469.91;7395807;19;20010;-65
2022/06/12 05:08:48;;;;;;;3.73;2.70;;;;;;;17.09;61.71;101473.19;7395034;19;20023;-65
2022/06/12 05:11:17;;;;;;;4.45;3.08;;;;;;;17.15;61.73;101475.59;7394582;19;20082;-64
2022/06/12 05:13:46;;;;;;;3.80;2.88;;;;;;;17.22;61.24;101476.22;7394138;19;20025;-65
2022/06/12 05:16:23;;;;;;;3.85;2.90;;;;;;;17.29;61.45;101482.16;7395752;19;20023;-65
2022/06/12 05:18:51;;;;;;;2.90;2.70;;;;;;;17.35;61.59;101485.44;7393741;19;20024;-65
2022/06/12 05:21:22;;;;;;;4.28;2.92;;;;;;;17.41;61.40;101485.22;7391773;19;20024;-65
2022/06/12 05:23:52;;;;;;;4.38;2.85;;;;;;;17.45;61.44;101482.44;7395388;19;20011;-65
2022/06/12 05:26:21;;;;;;;4.57;2.50;;;;;;;17.46;61.42;101474.41;7395548;19;20022;-65
2022/06/12 05:28:50;;;;;;;3.85;2.42;;;;;;;17.48;61.14;101480.53;7394867;19;20011;-65
2022/06/12 05:31:25;;;;;;;3.42;3.00;;;;;;;17.49;61.02;101481.38;7393343;19;20028;-64
2022/06/12 05:33:54;;;;;;;2.67;2.47;;;;;;;17.50;61.35;101483.13;7393291;19;20018;-65
2022/06/12 05:36:26;;;;;;;3.20;2.50;;;;;;;17.51;61.70;101487.50;7392716;19;20037;-65
2022/06/12 05:38:55;;;;;;;4.13;2.50;;;;;;;17.53;61.63;101480.34;7394689;19;20078;-65
2022/06/12 05:41:23;;;;;;;4.47;2.65;;;;;;;17.55;61.57;101474.06;7392789;19;20014;-65
2022/06/12 05:43:52;;;;;;;5.63;2.65;;;;;;;17.58;61.46;101473.94;7392546;19;20027;-65
2022/06/12 05:46:21;;;;;;;5.40;3.08;;;;;;;17.61;61.50;101472.94;7394893;19;20018;-65
2022/06/12 05:48:49;;;;;;;3.25;2.95;;;;;;;17.62;61.25;101468.53;7394603;19;20011;-65
2022/06/12 05:51:21;;;;;;;5.13;3.58;;;;;;;17.66;61.62;101472.78;7394697;19;20387;-65
2022/06/12 05:53:52;;;;;;;3.70;3.40;;;;;;;17.70;61.53;101469.06;7393481;19;20025;-65
2022/06/12 05:56:24;;;;;;;3.38;3.08;;;;;;;17.75;61.29;101472.38;7393560;19;20028;-65
2022/06/12 05:58:53;;;;;;;3.90;3.40;;;;;;;17.82;61.18;101475.66;7393312;19;20035;-65
2022/06/12 06:01:23;;;;;;;5.20;3.78;;;;;;;17.85;60.86;101467.59;7392840;19;20023;-65
2022/06/12 06:03:52;;;;;;;3.03;2.78;;;;;;;17.95;60.76;101470.75;7394809;19;20011;-65
2022/06/12 06:06:26;;;;;;;4.53;3.00;;;;;;;18.00;60.75;101461.66;7394316;19;20512;-65
2022/06/12 06:08:57;;;;;;;5.28;3.13;;;;;;;18.09;60.36;101462.22;7392051;19;20031;-65
2022/06/12 06:11:27;;;;;;;4.18;3.55;;;;;;;18.15;60.03;101456.66;7394481;19;20030;-65
2022/06/12 06:13:55;;;;;;;3.80;3.40;;;;;;;18.20;60.05;101460.84;7392780;19;20014;-65
2022/06/12 06:16:25;;;;;;;5.63;3.92;;;;;;;18.26;59.93;101459.72;7392261;19;20041;-63
2022/06/12 06:18:53;;;;;;;4.72;3.47;;;;;;;18.33;59.86;101470.94;7394119;19;20018;-65
2022/06/12 06:21:22;;;;;;;3.47;3.17;;;;;;;18.40;59.79;101461.78;7394008;19;20014;-65
2022/06/12 06:23:51;;;;;;;5.03;3.08;;;;;;;18.46;59.45;101458.84;7393969;19;20026;-65
2022/06/12 06:26:23;;;;;;;4.25;3.38;;;;;;;18.53;59.41;101462.09;7391707;19;20010;-65
2022/06/12 06:28:52;;;;;;;3.45;2.85;;;;;;;18.59;59.45;101458.31;7391515;19;20014;-65
2022/06/12 06:31:22;;;;;;;3.05;2.70;;;;;;;18.66;59.06;101457.97;7391472;19;20018;-66
2022/06/12 06:33:51;;;;;;;2.97;2.70;;;;;;;18.71;59.16;101461.28;7396271;19;20027;-66
2022/06/12 06:36:19;;;;;;;3.53;3.13;;;;;;;18.73;59.03;101459.41;7400759;19;20383;-66
2022/06/12 06:38:48;;;;;;;4.72;3.10;;;;;;;18.76;59.08;101458.41;7398449;19;20090;-66
2022/06/12 06:41:17;;;;;;;5.13;3.08;;;;;;;18.79;59.08;101455.66;7398801;19;20010;-67
2022/06/12 06:46:29;;;;;;;3.97;3.05;;;;;;;18.90;59.21;101457.81;7401217;19;20015;-65
2022/06/12 06:48:58;;;;;;;3.22;2.83;;;;;;;18.94;58.95;101451.44;7400465;19;20508;-66
2022/06/12 06:51:27;;;;;;;4.20;3.05;;;;;;;19.00;59.28;101455.63;7400120;19;20029;-65
2022/06/12 06:53:55;;;;;;;3.20;2.80;;;;;;;19.06;59.01;101450.03;7398698;19;20014;-66
2022/06/12 06:56:26;;;;;;;3.55;3.13;;;;;;;19.12;58.74;101457.72;7397944;19;20377;-66
2022/06/12 06:58:57;;;;;;;4.13;3.22;;;;;;;19.17;58.75;101457.47;7401206;19;20019;-65
2022/06/12 07:01:26;;;;;;;4.25;3.50;;;;;;;19.24;58.52;101458.94;7400464;19;20031;-65
2022/06/12 07:03:55;;;;;;;4.38;2.88;;;;;;;19.33;58.41;101453.16;7398409;19;20015;-65
2022/06/12 07:06:24;;;;;;;3.60;2.97;;;;;;;19.42;57.93;101446.53;7398336;19;20022;-66
2022/06/12 07:08:53;;;;;;;3.92;2.78;;;;;;;19.52;57.87;101452.28;7399906;19;20015;-66
2022/06/12 07:11:21;;;;;;;4.05;2.78;;;;;;;19.61;57.60;101451.00;7397280;19;20011;-65
2022/06/12 07:13:50;;;;;;;3.33;2.95;;;;;;;19.70;57.50;101446.09;7398190;19;20023;-65
2022/06/12 07:16:22;;;;;;;3.85;2.60;;;;;;;19.84;56.79;101442.78;7396936;19;20044;-66
2022/06/12 07:18:50;;;;;;;2.88;2.63;;;;;;;19.99;56.86;101440.28;7397152;19;20031;-65
2022/06/12 07:21:20;;;;;;;4.30;2.95;;;;;;;20.15;56.43;101435.88;7399154;19;20028;-65
2022/06/12 07:23:48;;;;;;;4.53;3.08;;;;;;;20.28;56.39;101441.47;7397282;19;20031;-66
2022/06/12 07:26:21;;;;;;;4.80;2.78;;;;;;;20.39;55.87;101442.72;7399531;19;20040;-65
2022/06/12 07:28:50;;;;;;;4.43;2.55;;;;;;;20.47;55.43;101446.72;7400126;19;20032;-66
2022/06/12 07:31:22;;;;;;;4.72;2.88;;;;;;;20.53;54.65;101442.84;7399445;19;20027;-64
2022/06/12 07:33:51;;;;;;;5.95;3.30;;;;;;;20.57;54.65;101439.06;7397744;19;20023;-65
2022/06/12 07:36:22;;;;;;;3.33;2.70;;;;;;;20.63;54.51;101446.75;7398159;19;20037;-65
2022/06/12 07:38:52;;;;;;;4.55;2.75;;;;;;;20.67;54.46;101440.31;7396638;19;20019;-65
2022/06/12 07:41:22;;;;;;;4.10;2.70;;;;;;;20.67;54.33;101443.00;7396547;19;20010;-65
2022/06/12 07:43:51;;;;;;;5.82;2.70;;;;;;;20.66;54.56;101443.03;7395308;19;20086;-66
2022/06/12 07:46:23;;;;;;;3.63;3.30;;;;;;;20.66;55.03;101440.38;7398363;19;20032;-66
2022/06/12 07:48:51;;;;;;;7.18;3.13;;;;;;;20.67;54.88;101431.44;7396945;19;20485;-66
2022/06/12 07:51:22;;;;;;;6.38;2.97;;;;;;;20.67;54.68;101427.00;7396078;19;20022;-66
2022/06/12 07:53:53;;;;;;;5.20;2.88;;;;;;;20.74;54.91;101426.66;7395708;19;20031;-65
2022/06/12 07:56:23;;;;;;;3.80;2.15;;;;;;;20.77;54.65;101422.03;7396221;19;20027;-66
2022/06/12 07:58:52;;;;;;;2.58;2.10;;;;;;;20.80;54.54;101421.88;7396048;19;20032;-66
2022/06/12 08:01:26;;;;;;;4.78;2.10;;;;;;;20.82;54.09;101435.97;7395796;19;20362;-65
2022/06/12 08:03:55;;;;;;;3.13;2.17;;;;;;;20.83;54.21;101434.19;7396723;19;20035;-66
2022/06/12 08:06:25;;;;;;;3.35;2.05;;;;;;;20.87;54.13;101440.22;7397669;19;20011;-66
2022/06/12 08:08:56;;;;;;;3.58;2.17;;;;;;;20.88;54.51;101429.47;7397927;19;20014;-66
2022/06/12 08:11:25;;;;;;;4.15;2.40;;;;;;;20.90;54.46;101437.38;7396845;19;20393;-66
2022/06/12 08:13:54;;;;;;;5.68;2.60;;;;;;;20.93;54.60;101434.56;7395863;19;20014;-66
2022/06/12 08:16:25;;;;;;;5.97;2.85;;;;;;;20.99;54.42;101431.53;7397414;19;20015;-66
2022/06/12 08:18:54;;;;;;;5.22;2.78;;;;;;;21.08;54.64;101431.03;7396158;19;20014;-66
2022/06/12 08:21:22;;;;;;;3.35;2.63;;;;;;;21.16;54.32;101428.78;7396793;19;20035;-66
2022/06/12 08:23:54;;;;;;;4.90;2.83;;;;;;;21.23;54.41;101431.13;7395056;19;20014;-66
2022/06/12 08:26:26;;;;;;;5.43;3.17;;;;;;;21.30;54.42;101419.16;7397235;19;20010;-65
2022/06/12 08:28:58;;;;;;;4.75;2.80;;;;;;;21.38;54.44;101416.94;7394796;19;20033;-65
2022/06/12 08:31:34;;;;;;;2.70;2.13;;;;;;;21.45;53.45;101420.97;7396038;19;20078;-65
2022/06/12 08:34:06;;;;;;;2.92;2.38;;;;;;;21.52;53.66;101420.63;7394300;19;20019;-66
2022/06/12 08:36:35;;;;;;;4.75;2.70;;;;;;;21.57;53.51;101416.78;7396040;19;20011;-66
2022/06/12 08:39:04;;;;;;;5.10;2.60;;;;;;;21.66;53.41;101412.72;7395846;19;20371;-65
2022/06/12 08:41:38;;;;;;;5.28;2.90;;;;;;;21.77;53.46;101412.06;7393933;19;20026;-66
2022/06/12 08:44:13;;;;;;;3.38;2.80;;;;;;;21.83;53.23;101411.72;7394511;19;20024;-66
2022/06/12 08:46:53;;;;;;;2.50;1.98;;;;;;;21.88;52.06;101404.28;7394511;19;20525;-66
2022/06/12 08:49:28;;;;;;;3.10;2.25;;;;;;;21.94;52.20;101406.59;7396737;19;20018;-66
2022/06/12 08:52:03;;;;;;;3.65;2.40;;;;;;;22.01;51.24;101411.59;7395556;19;20018;-66
2022/06/12 08:54:38;;;;;;;3.58;2.08;;;;;;;22.06;51.52;101405.00;7394233;19;20074;-66
2022/06/12 08:57:11;;;;;;;4.55;2.65;;;;;;;22.14;51.36;101401.91;7394710;19;20035;-66
2022/06/12 08:59:46;;;;;;;3.38;2.42;;;;;;;22.19;50.88;101397.13;7394773;19;20070;-66
2022/06/12 09:02:23;;;;;;;2.47;1.90;;;;;;;22.26;50.45;101392.25;7393699;19;20041;-65
2022/06/12 09:04:51;;;;;;;3.95;1.90;;;;;;;22.33;50.14;101387.41;7393856;19;20428;-66
2022/06/12 09:07:26;;;;;;;3.58;1.52;;;;;;;22.42;49.15;101397.56;7393948;19;20403;-65
2022/06/12 09:10:00;;;;;;;4.25;1.58;;;;;;;22.49;49.28;101390.88;7395455;19;20022;-67
2022/06/12 09:12:36;;;;;;;2.08;1.80;;;;;;;22.57;48.73;101396.63;7393273;19;20028;-66
2022/06/12 09:15:13;;;;;;;3.53;2.10;;;;;;;22.66;48.51;101387.16;7393411;19;20551;-67
2022/06/12 09:17:56;;;;;;;5.10;2.92;;;;;;;22.78;47.92;101385.53;7395581;19;20031;-66
2022/06/12 09:20:34;;;;;;;5.45;2.22;;;;;;;22.91;46.79;101396.28;7394975;19;20039;-66
2022/06/12 09:23:10;;;;;;;4.45;2.20;;;;;;;23.02;47.22;101383.09;7393694;19;20031;-67
2022/06/12 09:25:48;;;;;;;6.43;3.00;;;;;;;23.17;46.37;101385.78;7395544;19;20018;-66
2022/06/12 09:28:38;;;;;;;4.03;1.50;;;;;;;23.29;45.34;101392.13;7393001;19;20018;-66
2022/06/12 09:31:13;;;;;;;2.30;1.60;;;;;;;23.40;45.52;101389.63;7394845;19;20185;-67
2022/06/12 09:33:50;;;;;;;2.42;1.60;;;;;;;23.49;45.05;101396.19;7393472;19;20015;-67
2022/06/12 09:36:32;;;;;;;2.67;1.50;;;;;;;23.54;44.80;101400.28;7393526;19;20019;-66
2022/06/12 09:39:09;;;;;;;2.85;2.05;;;;;;;23.57;45.83;101389.38;7393710;19;20485;-66
2022/06/12 09:41:48;;;;;;;4.63;2.22;;;;;;;23.61;44.72;101384.66;7392018;19;20028;-66
2022/06/12 09:44:22;;;;;;;3.67;1.95;;;;;;;23.64;45.18;101392.47;7393099;19;20018;-66
2022/06/12 09:47:07;;;;;;;4.22;1.55;;;;;;;23.66;45.10;101384.38;7392743;19;20027;-67
2022/06/12 09:49:50;;;;;;;2.65;1.60;;;;;;;23.74;44.45;101384.69;7393309;19;20035;-67
2022/06/12 09:52:38;;;;;;;3.38;1.63;;;;;;;23.81;43.75;101394.03;7393596;19;20036;-66
2022/06/12 09:55:14;;;;;;;2.83;1.60;;;;;;;23.83;44.49;101385.91;7393097;19;20022;-67
2022/06/12 09:57:49;;;;;;;3.65;1.80;;;;;;;23.85;44.38;101386.66;7393954;19;20498;-66
2022/06/12 10:00:22;;;;;;;3.20;1.90;;;;;;;23.87;44.38;101382.91;7394580;19;20035;-66
2022/06/12 10:03:00;;;;;;;3.55;1.98;;;;;;;23.87;44.46;101382.91;7392894;19;20021;-65
2022/06/12 10:05:38;;;;;;;4.18;1.90;;;;;;;23.93;44.67;101380.81;7393800;19;20509;-66
2022/06/12 10:08:14;;;;;;;2.65;1.67;;;;;;;24.01;44.53;101387.38;7397507;19;20030;-65
2022/06/12 10:10:46;;;;;;;2.58;1.40;;;;;;;24.08;44.66;101385.94;7401255;19;20027;-66
2022/06/12 10:13:20;;;;;;;3.40;1.45;;;;;;;24.10;44.05;101379.63;7398706;19;20022;-66
2022/06/12 10:15:52;;;;;;;3.85;1.63;;;;;;;23.99;42.99;101383.06;7398878;19;20035;-66
2022/06/12 10:18:27;;;;;;;4.50;1.52;;;;;;;23.90;43.21;101382.69;7398832;19;20022;-67
2022/06/12 10:21:04;;;;;;;4.25;1.50;;;;;;;23.84;43.48;101377.75;7401550;19;20022;-66
2022/06/12 10:23:33;;;;;;;2.45;1.30;;;;;;;23.84;43.61;101368.88;7398591;19;20027;-67
2022/06/12 10:26:04;;;;;;;3.47;1.75;;;;;;;23.85;43.52;101376.78;7397696;19;20015;-66
2022/06/12 10:28:35;;;;;;;4.95;1.58;;;;;;;23.86;43.22;101364.25;7401739;19;20032;-66
2022/06/12 10:31:18;;;;;;;4.40;1.60;;;;;;;23.93;42.52;101364.72;7397592;19;20023;-66
2022/06/12 10:33:54;;;;;;;4.07;1.70;;;;;;;24.00;42.58;101360.63;7399688;19;20037;-66
2022/06/12 10:36:28;;;;;;;2.25;1.10;;;;;;;24.08;41.41;101359.16;7400989;19;20404;-65
2022/06/12 10:39:09;;;;;;;5.68;1.80;;;;;;;24.11;41.47;101366.13;7400698;19;20028;-65
2022/06/12 10:41:46;;;;;;;3.75;1.65;;;;;;;24.19;41.63;101358.41;7398161;19;20006;-66
2022/06/12 10:44:36;;;;;;;3.80;1.35;;;;;;;24.31;41.58;101354.00;7401036;19;20040;-66
2022/06/12 10:47:17;;;;;;;5.28;1.63;;;;;;;24.48;41.20;101362.69;7400917;19;20022;-66
2022/06/12 10:49:46;;;;;;;5.18;1.25;;;;;;;24.61;41.14;101358.16;7400764;19;20019;-64
2022/06/12 10:52:21;;;;;;;3.80;1.60;;;;;;;24.74;40.49;101347.44;7398889;19;20022;-65
2022/06/12 10:54:51;;;;;;;5.07;1.75;;;;;;;24.84;40.46;101356.53;7398090;19;20336;-65
2022/06/12 10:57:39;;;;;;;4.82;1.60;;;;;;;24.92;40.22;101352.44;7398041;19;20073;-65
2022/06/12 11:00:12;;;;;;;7.38;1.50;;;;;;;24.93;40.59;101355.00;7399550;19;20011;-65
2022/06/12 11:03:05;;;;;;;5.75;1.75;;;;;;;24.96;39.60;101356.59;7397262;19;20014;-66
2022/06/12 11:05:49;;;;;;;3.53;1.50;;;;;;;24.99;39.43;101351.03;7399264;19;20037;-64
2022/06/12 11:08:32;;;;;;;7.65;1.80;;;;;;;25.04;39.87;101347.03;7399916;19;20011;-69
2022/06/12 11:11:05;;;;;;;;;;;;;;;25.13;39.53;101348.16;7400531;19;20014;-68
2022/06/12 11:13:48;;;;;;;6.20;1.80;;;;;;;25.19;39.69;101342.34;7399034;19;20338;-69
2022/06/12 11:16:29;;;;;;;3.00;1.73;;;;;;;25.19;39.83;101342.34;7400187;19;20024;-68
2022/06/12 11:19:16;;;;;;;3.88;1.55;;;;;;;25.22;39.31;101338.56;7397898;19;20018;-70
2022/06/12 11:21:56;;;;;;;5.47;1.42;;;;;;;25.26;39.46;101333.84;7397752;19;20380;-69
2022/06/12 11:24:31;;;;;;;5.07;1.48;;;;;;;25.20;38.75;101336.00;7398571;19;20028;-69
2022/06/12 11:27:17;;;;;;;4.60;1.70;;;;;;;25.17;39.00;101336.25;7398720;19;20553;-69
2022/06/12 11:30:10;;;;;;;5.07;1.75;;;;;;;25.19;38.65;101331.59;7399351;19;20074;-69
2022/06/12 11:33:13;;;;;;;5.43;1.60;;;;;;;25.17;39.21;101317.47;7397172;19;20015;-69
2022/06/12 11:35:49;;;;;;;3.77;1.37;;;;;;;25.23;39.30;101316.13;7395965;19;20545;-70
2022/06/12 11:38:42;;;;;;;3.60;1.52;;;;;;;25.38;39.08;101300.72;7396544;19;20422;-70
2022/06/12 11:41:23;;;;;;;6.38;1.92;;;;;;;25.59;38.46;101311.66;7395568;19;20367;-70
2022/06/12 11:44:04;;;;;;;3.65;1.55;;;;;;;25.78;37.88;101311.09;7396312;19;20018;-70
2022/06/12 11:46:42;;;;;;;4.82;2.10;;;;;;;25.88;38.20;101300.47;7397988;19;20023;-70
2022/06/12 11:49:28;;;;;;;7.70;1.63;;;;;;;25.88;36.76;101302.31;7397350;19;20502;-68
2022/06/12 11:52:08;;;;;;;3.25;1.67;;;;;;;25.88;37.07;101296.94;7395197;19;20099;-70
2022/06/12 11:54:51;;;;;;;6.82;2.75;;;;;;;25.92;36.53;101293.91;7397632;19;20031;-69
2022/06/12 11:57:30;;;;;;;4.13;1.63;;;;;;;26.07;36.52;101299.94;7396013;19;20019;-69
2022/06/12 12:00:12;;;;;;;8.32;3.55;;;;;;;26.21;36.14;101298.84;7398105;19;20026;-70
2022/06/12 12:02:53;;;;;;;6.07;1.90;;;;;;;26.32;36.21;101292.59;7397240;19;20026;-68
2022/06/12 12:05:38;;;;;;;4.70;1.75;;;;;;;26.42;36.05;101282.81;7398129;19;20074;-69
2022/06/12 12:08:21;;;;;;;4.78;1.77;;;;;;;26.56;35.59;101281.69;7395618;19;20480;-69